Time;durP1;ratioP1;P1;durP2;ratioP2;P2;SDS_P1;SDS_P2;PMS_P1;PMS_P2;Temp;Humidity;BMP_temperature;BMP_pressure;BME280_temperature;BME280_humidity;BME280_pressure;Samples;Min_cycle;Max_cycle;Signal;HPM_P1;HPM_P2
2022/11/01 00:01:24;;;;;;;18.33;7.25;;;;;;;13.49;68.67;101192.59;5030116;28;20036;-69
2022/11/01 00:03:50;;;;;;;15.18;6.70;;;;;;;13.35;69.63;101152.28;5007318;28;20033;-68
2022/11/01 00:06:15;;;;;;;11.50;7.07;;;;;;;13.52;70.09;101189.22;5007694;28;20040;-68
2022/11/01 00:08:41;;;;;;;11.90;7.28;;;;;;;13.53;70.69;101183.22;5007387;28;20385;-68
2022/11/01 00:11:11;;;;;;;15.13;7.10;;;;;;;13.32;70.61;101172.91;5007543;28;20477;-66
2022/11/01 00:13:37;;;;;;;13.07;6.78;;;;;;;13.35;70.39;101186.88;5007414;28;20029;-69
2022/11/01 00:16:02;;;;;;;11.63;6.82;;;;;;;13.07;69.97;101140.88;5015295;28;20393;-66
2022/11/01 00:18:28;;;;;;;9.48;6.03;;;;;;;13.05;69.67;101173.66;5013263;28;20547;-66
2022/11/01 00:20:53;;;;;;;15.70;5.93;;;;;;;12.81;70.35;101177.06;5007462;28;20438;-66
2022/11/01 00:23:19;;;;;;;15.57;5.72;;;;;;;12.63;70.26;101159.06;5007165;28;20026;-66
2022/11/01 00:25:45;;;;;;;10.23;5.22;;;;;;;12.72;70.17;101185.34;5007571;28;20030;-67
2022/11/01 00:28:10;;;;;;;12.93;5.85;;;;;;;12.66;70.02;101190.28;5007436;28;20092;-67
2022/11/01 00:30:37;;;;;;;10.63;5.38;;;;;;;12.62;70.14;101178.00;5007185;28;20033;-67
2022/11/01 00:33:03;;;;;;;10.15;5.55;;;;;;;12.66;70.07;101179.94;5007331;28;20209;-69
2022/11/01 00:35:31;;;;;;;11.95;5.88;;;;;;;12.44;69.88;101140.19;5007382;28;20041;-68
2022/11/01 00:37:58;;;;;;;15.98;6.03;;;;;;;12.43;69.76;101130.66;5007107;28;20034;-68
2022/11/01 00:40:24;;;;;;;12.38;5.80;;;;;;;12.76;69.77;101181.16;5010374;28;20076;-66
2022/11/01 00:42:50;;;;;;;9.70;5.38;;;;;;;12.62;69.26;101188.38;5029643;28;20107;-72
2022/11/01 00:45:16;;;;;;;12.68;5.30;;;;;;;12.48;69.44;101189.53;5029190;28;20025;-71
2022/11/01 00:47:41;;;;;;;11.05;5.32;;;;;;;12.50;69.02;101183.59;5029339;28;20033;-67
2022/11/01 00:50:07;;;;;;;16.92;5.30;;;;;;;12.53;68.81;101186.31;5029513;28;20033;-67
2022/11/01 00:52:33;;;;;;;10.10;5.60;;;;;;;12.29;68.90;101161.19;5029258;28;20025;-69
2022/11/01 00:54:58;;;;;;;11.38;4.85;;;;;;;12.45;69.01;101188.59;5034317;28;20087;-69
2022/11/01 00:57:24;;;;;;;13.90;5.50;;;;;;;12.04;68.34;101123.06;5044591;28;20101;-69
2022/11/01 00:59:49;;;;;;;13.85;5.13;;;;;;;12.32;68.33;101188.91;5032743;28;20040;-66
2022/11/01 01:02:15;;;;;;;11.70;5.50;;;;;;;12.07;68.73;101185.28;5032958;28;20108;-68
2022/11/01 01:04:42;;;;;;;12.30;5.38;;;;;;;11.90;68.81;101170.72;5032811;28;20037;-68
2022/11/01 01:07:08;;;;;;;13.48;5.88;;;;;;;11.86;68.95;101186.94;5032585;28;20029;-68
2022/11/01 01:09:35;;;;;;;12.10;4.97;;;;;;;11.75;69.47;101179.59;5033493;28;20044;-68
2022/11/01 01:12:01;;;;;;;11.40;5.30;;;;;;;11.28;69.28;101116.34;5032735;28;20033;-66
2022/11/01 01:14:27;;;;;;;10.68;5.30;;;;;;;11.71;69.96;101194.91;5033026;28;20043;-66
2022/11/01 01:16:53;;;;;;;10.82;5.03;;;;;;;11.72;69.96;101191.50;5032456;28;20606;-67
2022/11/01 01:19:19;;;;;;;14.40;5.75;;;;;;;11.67;70.21;101188.72;5032671;28;20059;-66
2022/11/01 01:21:44;;;;;;;11.27;5.88;;;;;;;11.64;70.79;101192.03;5032555;28;20065;-69
2022/11/01 01:24:10;;;;;;;15.05;6.55;;;;;;;11.58;72.34;101186.59;5032586;28;20072;-68
2022/11/01 01:26:35;;;;;;;11.98;6.65;;;;;;;11.56;74.35;101183.06;5033140;28;20403;-71
2022/11/01 01:29:01;;;;;;;13.88;7.25;;;;;;;11.44;74.94;101173.06;5032553;28;20029;-67
2022/11/01 01:31:26;;;;;;;12.35;6.68;;;;;;;11.53;74.84;101171.72;5032448;28;20534;-70
2022/11/01 01:33:52;;;;;;;10.15;6.03;;;;;;;11.40;74.49;101160.81;5032596;28;20037;-69
2022/11/01 01:36:17;;;;;;;8.10;5.70;;;;;;;11.58;74.00;101190.91;5031856;28;20056;-69
2022/11/01 01:38:43;;;;;;;12.60;6.70;;;;;;;11.54;74.04;101184.72;5032325;28;20116;-70
2022/11/01 01:43:53;;;;;;;15.73;7.03;;;;;;;11.71;73.80;101184.56;5032486;28;20080;-69
2022/11/01 01:46:18;;;;;;;15.85;6.95;;;;;;;11.78;73.65;101177.13;5014994;28;20460;-68
2022/11/01 01:48:47;;;;;;;10.23;6.50;;;;;;;11.81;73.85;101176.38;5032603;28;20403;-68
2022/11/01 01:51:18;;;;;;;12.63;6.40;;;;;;;11.91;73.61;101177.66;5032313;28;20042;-68
2022/11/01 01:53:48;;;;;;;12.00;7.45;;;;;;;11.97;73.34;101170.19;5032451;28;20025;-67
2022/11/01 01:56:19;;;;;;;9.63;6.57;;;;;;;12.08;72.75;101171.53;5032648;28;20449;-68
2022/11/01 01:59:08;;;;;;;12.45;7.35;;;;;;;12.07;72.05;101179.22;5032145;28;20737;-69
2022/11/01 02:01:38;;;;;;;10.02;5.90;;;;;;;12.08;72.28;101184.47;5032008;28;20041;-70
2022/11/01 02:04:09;;;;;;;12.18;7.18;;;;;;;11.93;72.86;101181.22;5032089;28;20034;-68
2022/11/01 02:06:36;;;;;;;12.55;6.90;;;;;;;11.90;73.15;101187.13;5014258;28;20026;-68
2022/11/01 02:09:04;;;;;;;15.75;7.85;;;;;;;11.86;73.40;101176.56;5032217;28;20049;-68
2022/11/01 02:11:29;;;;;;;12.02;7.32;;;;;;;11.94;73.04;101180.38;5032320;28;20056;-69
2022/11/01 02:13:56;;;;;;;14.23;8.35;;;;;;;11.94;72.77;101185.56;5031881;28;20025;-68
2022/11/01 02:16:45;;;;;;;15.15;6.95;;;;;;;11.93;72.58;101182.06;5031875;28;20025;-71
2022/11/01 02:19:39;;;;;;;12.48;7.05;;;;;;;11.94;72.47;101181.25;5031948;28;20033;-68
2022/11/01 02:22:29;;;;;;;11.50;6.88;;;;;;;11.98;72.41;101187.50;5031507;28;20021;-68
2022/11/01 02:25:22;;;;;;;11.05;7.38;;;;;;;11.97;72.16;101189.22;5031974;28;20029;-73
2022/11/01 02:28:12;;;;;;;12.13;6.90;;;;;;;11.97;72.17;101196.97;5031760;28;20172;-69
2022/11/01 02:30:54;;;;;;;20.35;8.27;;;;;;;11.95;72.15;101193.38;5031607;28;20111;-68
2022/11/01 02:33:43;;;;;;;15.60;7.20;;;;;;;12.01;72.04;101197.09;5031809;28;20040;-70
2022/11/01 02:36:24;;;;;;;14.38;8.10;;;;;;;12.00;71.66;101188.44;5031442;28;20109;-67
2022/11/01 02:38:57;;;;;;;12.75;7.55;;;;;;;12.07;71.39;101197.34;5031315;28;20099;-69
2022/11/01 02:41:27;;;;;;;13.30;7.13;;;;;;;12.04;70.68;101190.34;5031757;28;20028;-69
2022/11/01 02:44:02;;;;;;;11.70;6.88;;;;;;;11.86;66.64;101197.28;5031333;28;20057;-69
2022/11/01 02:49:22;;;;;;;15.05;7.97;;;;;;;11.44;66.98;101204.09;5031436;28;20478;-68
2022/11/01 02:51:49;;;;;;;17.42;7.68;;;;;;;11.31;68.12;101206.94;5031474;28;20041;-68
2022/11/01 02:54:32;;;;;;;12.90;7.05;;;;;;;11.12;68.73;101202.63;5031432;28;20053;-68
2022/11/01 02:57:05;;;;;;;13.15;7.10;;;;;;;10.93;69.44;101206.91;5031253;28;20033;-68
2022/11/01 02:59:42;;;;;;;12.73;6.72;;;;;;;10.78;70.33;101209.66;5031126;28;20033;-68
2022/11/01 03:02:16;;;;;;;11.50;7.55;;;;;;;10.79;71.64;101200.19;5031053;28;20102;-69
2022/11/01 03:04:41;;;;;;;12.18;7.75;;;;;;;10.81;71.47;101209.78;5030724;28;20029;-67
2022/11/01 03:07:11;;;;;;;15.15;7.25;;;;;;;10.89;71.68;101217.94;5031147;28;20147;-68
2022/11/01 03:09:38;;;;;;;12.13;6.85;;;;;;;10.67;71.62;101172.09;5031025;28;20500;-72
2022/11/01 03:12:11;;;;;;;14.98;7.20;;;;;;;10.99;71.35;101214.06;5030869;28;20079;-68
2022/11/01 03:14:58;;;;;;;15.85;7.57;;;;;;;11.02;71.53;101214.22;5030945;28;20543;-68
2022/11/01 03:17:37;;;;;;;12.18;7.53;;;;;;;11.06;71.63;101223.88;5030292;28;20026;-70
2022/11/01 03:20:21;;;;;;;14.25;7.25;;;;;;;11.03;71.54;101190.16;5030894;28;20028;-67
2022/11/01 03:22:59;;;;;;;18.33;7.72;;;;;;;11.21;70.96;101202.16;5030570;28;20065;-69
2022/11/01 03:25:39;;;;;;;18.17;8.80;;;;;;;11.32;70.71;101219.03;5030968;28;20030;-67
2022/11/01 03:28:22;;;;;;;18.90;8.45;;;;;;;11.32;70.61;101219.91;5030673;28;20044;-68
2022/11/01 03:31:04;;;;;;;14.70;8.52;;;;;;;11.35;70.55;101224.34;5030804;28;20412;-68
2022/11/01 03:33:33;;;;;;;17.27;8.48;;;;;;;11.30;71.14;101216.41;5030662;28;20035;-67
2022/11/01 03:36:07;;;;;;;14.43;9.10;;;;;;;11.24;71.45;101230.72;5030711;28;20509;-71
2022/11/01 03:38:38;;;;;;;14.50;7.78;;;;;;;11.25;71.59;101232.50;5030656;28;20095;-67
2022/11/01 03:41:10;;;;;;;14.25;8.45;;;;;;;11.29;71.39;101229.22;5030477;28;20056;-67
2022/11/01 03:43:36;;;;;;;12.77;7.82;;;;;;;11.31;70.73;101231.09;5030611;28;20049;-67
2022/11/01 03:46:02;;;;;;;17.45;7.22;;;;;;;11.24;70.69;101230.72;5030302;28;20025;-67
2022/11/01 03:48:28;;;;;;;15.48;6.68;;;;;;;11.19;69.60;101227.94;5012943;28;20483;-68
2022/11/01 03:50:56;;;;;;;14.20;7.20;;;;;;;11.04;69.14;101222.03;5030548;28;20037;-68
2022/11/01 03:53:22;;;;;;;11.65;7.15;;;;;;;11.06;68.58;101234.22;5030540;28;20064;-68
2022/11/01 03:55:48;;;;;;;16.85;7.50;;;;;;;11.03;69.33;101236.66;5030315;28;20032;-67
2022/11/01 03:58:13;;;;;;;13.43;7.18;;;;;;;11.04;68.51;101237.53;5030180;28;20033;-68
2022/11/01 04:00:43;;;;;;;15.55;7.40;;;;;;;10.88;69.04;101236.81;5030451;28;20044;-67
2022/11/01 04:03:10;;;;;;;13.80;7.10;;;;;;;10.81;69.90;101240.78;5030384;28;20030;-69
2022/11/01 04:05:37;;;;;;;15.80;7.13;;;;;;;10.81;70.08;101235.63;5030308;28;20037;-70
2022/11/01 04:08:04;;;;;;;11.52;7.03;;;;;;;10.80;70.15;101244.22;5030347;28;20033;-67
2022/11/01 04:10:30;;;;;;;14.32;7.35;;;;;;;10.62;69.38;101209.75;5030302;28;20037;-68
2022/11/01 04:12:56;;;;;;;16.65;8.13;;;;;;;10.80;69.62;101245.88;5030127;28;20044;-72
2022/11/01 04:21:02;;;;;;;12.20;6.90;;;;;;;10.44;71.60;101202.88;5030009;28;20482;-68
2022/11/01 04:23:28;;;;;;;16.45;7.05;;;;;;;10.66;71.21;101243.50;4968838;28;20049;-66
2022/11/01 04:25:53;;;;;;;13.20;6.78;;;;;;;10.56;71.28;101233.53;4969150;28;20039;-67
2022/11/01 04:28:18;;;;;;;12.07;6.82;;;;;;;10.62;71.36;101243.31;4969857;28;20065;-68
2022/11/01 04:30:44;;;;;;;14.30;7.75;;;;;;;10.67;71.16;101249.59;4972637;28;20035;-68
2022/11/01 04:33:10;;;;;;;12.43;7.10;;;;;;;10.62;70.20;101241.59;4972653;28;20035;-69
2022/11/01 04:35:37;;;;;;;10.05;6.80;;;;;;;10.47;69.15;101241.72;4972511;28;20031;-69
2022/11/01 04:38:03;;;;;;;15.15;7.05;;;;;;;10.33;69.76;101241.00;4972539;28;20129;-71
2022/11/01 04:40:28;;;;;;;10.88;6.75;;;;;;;10.18;70.31;101246.28;4972495;28;20035;-66
2022/11/01 04:42:53;;;;;;;14.35;7.35;;;;;;;10.14;71.09;101239.19;4939855;28;20594;-67
2022/11/01 04:45:19;;;;;;;12.98;7.57;;;;;;;10.19;71.48;101244.56;4972541;28;20046;-67
2022/11/01 04:47:54;;;;;;;11.63;7.60;;;;;;;10.13;71.49;101245.16;4972318;28;20031;-67
2022/11/01 04:50:20;;;;;;;13.73;7.15;;;;;;;9.97;71.59;101204.78;4972319;28;20113;-68
2022/11/01 04:52:47;;;;;;;16.08;7.60;;;;;;;10.10;71.79;101252.72;4981310;28;20034;-67
2022/11/01 04:55:13;;;;;;;15.13;7.95;;;;;;;10.00;71.46;101256.53;5019983;28;20104;-67
2022/11/01 04:57:42;;;;;;;24.95;8.80;;;;;;;9.94;71.32;101260.50;5022624;28;20388;-66
2022/11/01 05:00:12;;;;;;;20.25;7.93;;;;;;;9.94;71.12;101256.19;5002626;28;20544;-68
2022/11/01 05:02:39;;;;;;;22.13;12.35;;;;;;;9.83;72.13;101218.66;5025047;28;20147;-69
2022/11/01 05:05:06;;;;;;;28.55;15.02;;;;;;;10.03;73.52;101258.38;5033659;28;20037;-71
2022/11/01 05:07:31;;;;;;;32.40;14.32;;;;;;;10.00;73.22;101250.50;5033375;28;20025;-68
2022/11/01 05:09:57;;;;;;;36.05;16.17;;;;;;;9.92;73.61;101251.78;5033347;28;20488;-72
2022/11/01 05:12:22;;;;;;;26.10;15.70;;;;;;;9.77;73.94;101218.34;5031997;28;20037;-70
2022/11/01 05:14:47;;;;;;;30.05;15.60;;;;;;;10.13;74.01;101260.66;5033227;28;20029;-69
2022/11/01 05:17:13;;;;;;;34.50;14.55;;;;;;;10.20;73.53;101257.56;5033248;28;20034;-70
2022/11/01 05:19:38;;;;;;;24.75;12.98;;;;;;;10.16;72.70;101273.69;5033493;28;20491;-71
2022/11/01 05:22:04;;;;;;;28.35;12.63;;;;;;;10.15;73.80;101274.50;5033242;28;20466;-70
2022/11/01 05:24:29;;;;;;;26.35;13.82;;;;;;;10.15;74.48;101273.63;4998097;28;20041;-72
2022/11/01 05:26:55;;;;;;;18.95;10.93;;;;;;;10.14;75.21;101277.91;5033036;28;20109;-71
2022/11/01 05:29:20;;;;;;;21.92;10.25;;;;;;;10.12;76.47;101281.19;5033006;28;20464;-71
2022/11/01 05:31:45;;;;;;;20.05;9.95;;;;;;;10.16;75.33;101278.84;5014999;28;20032;-68
2022/11/01 05:34:11;;;;;;;20.70;9.00;;;;;;;10.15;75.98;101282.22;5019373;28;20038;-69
2022/11/01 05:36:36;;;;;;;23.48;10.73;;;;;;;10.14;76.61;101282.16;5013747;28;20440;-69
2022/11/01 05:39:02;;;;;;;17.17;10.25;;;;;;;10.12;76.88;101287.25;5013102;28;20109;-71
2022/11/01 05:41:27;;;;;;;16.02;10.25;;;;;;;10.10;77.37;101287.97;5012550;28;20022;-69
2022/11/01 05:43:53;;;;;;;17.33;10.35;;;;;;;10.12;77.58;101276.03;4994572;28;20058;-74
2022/11/01 05:46:18;;;;;;;17.67;9.85;;;;;;;10.04;77.56;101253.31;5012987;28;20030;-70
2022/11/01 05:48:44;;;;;;;16.58;10.05;;;;;;;10.40;76.42;101291.25;5013093;28;20021;-68
2022/11/01 05:51:09;;;;;;;18.85;9.85;;;;;;;10.50;75.77;101290.03;5013233;28;20037;-75
2022/11/01 05:53:35;;;;;;;17.05;10.68;;;;;;;10.58;74.85;101291.31;5012958;28;20052;-72
2022/11/01 05:56:00;;;;;;;16.75;9.38;;;;;;;10.71;74.61;101297.97;5012894;28;20492;-69
2022/11/01 05:58:27;;;;;;;18.15;9.68;;;;;;;10.78;74.65;101297.47;4978285;28;20048;-72
2022/11/01 06:01:00;;;;;;;20.08;10.00;;;;;;;10.29;76.05;101282.97;5012579;28;20428;-70
2022/11/01 06:03:26;;;;;;;21.48;10.27;;;;;;;10.15;77.66;101304.56;5012884;28;20500;-73
2022/11/01 06:05:51;;;;;;;18.48;10.00;;;;;;;10.11;78.61;101300.06;5012840;28;20065;-68
2022/11/01 06:08:17;;;;;;;20.45;10.35;;;;;;;10.34;78.55;101306.41;5012610;28;20117;-72
2022/11/01 06:10:42;;;;;;;17.63;9.80;;;;;;;10.52;78.91;101299.63;5012683;28;20029;-74
2022/11/01 06:13:08;;;;;;;18.35;9.88;;;;;;;10.59;78.18;101297.38;5012591;28;20041;-68
2022/11/01 06:15:35;;;;;;;17.90;10.00;;;;;;;10.72;78.28;101307.50;5012466;28;20033;-71
2022/11/01 06:18:01;;;;;;;14.85;9.45;;;;;;;10.86;77.97;101313.34;5012641;28;20029;-68
2022/11/01 06:20:28;;;;;;;15.93;9.52;;;;;;;10.95;77.66;101315.50;5012564;28;20037;-68
2022/11/01 06:22:54;;;;;;;17.20;10.48;;;;;;;11.02;77.78;101316.69;5012414;28;20034;-69
2022/11/01 06:25:20;;;;;;;17.95;9.40;;;;;;;10.99;77.52;101273.47;5012353;28;20026;-68
2022/11/01 06:27:46;;;;;;;18.73;9.68;;;;;;;11.42;76.80;101311.72;4994698;28;20180;-74
2022/11/01 06:30:11;;;;;;;16.48;9.40;;;;;;;11.60;75.83;101310.81;5012071;28;20033;-67
2022/11/01 06:32:37;;;;;;;16.02;9.88;;;;;;;11.73;76.04;101305.38;4994667;28;20033;-68
2022/11/01 06:35:03;;;;;;;16.30;9.80;;;;;;;11.90;75.43;101311.34;5012153;28;20468;-68
2022/11/01 06:37:28;;;;;;;18.00;9.98;;;;;;;12.05;74.90;101316.34;5012166;28;20054;-71
2022/11/01 06:39:54;;;;;;;16.77;10.35;;;;;;;12.19;74.76;101316.06;5012078;28;20543;-69
2022/11/01 06:42:19;;;;;;;14.48;9.50;;;;;;;12.28;74.53;101304.38;5011897;28;20029;-68
2022/11/01 06:44:44;;;;;;;19.88;11.18;;;;;;;12.30;75.22;101315.72;5011813;28;20026;-71
2022/11/01 06:47:11;;;;;;;14.70;10.50;;;;;;;12.09;76.99;101323.41;5011949;28;20030;-70
2022/11/01 06:49:37;;;;;;;17.27;10.75;;;;;;;12.17;77.60;101315.13;5011784;28;20480;-71
2022/11/01 06:52:03;;;;;;;15.45;10.65;;;;;;;12.50;76.46;101323.47;5010998;28;20095;-69
2022/11/01 06:54:30;;;;;;;17.08;10.25;;;;;;;12.71;75.04;101313.13;5011777;28;20083;-68
2022/11/01 06:56:55;;;;;;;19.52;10.30;;;;;;;12.92;74.84;101314.81;5011842;28;20072;-74
2022/11/01 06:59:23;;;;;;;18.02;10.05;;;;;;;12.98;74.23;101299.50;5011495;28;20065;-70
2022/11/01 07:01:50;;;;;;;22.95;11.20;;;;;;;13.25;73.49;101312.69;5011835;28;20064;-71
2022/11/01 07:04:16;;;;;;;21.52;11.20;;;;;;;13.39;72.54;101315.84;5018176;28;20071;-71
2022/11/01 07:06:42;;;;;;;18.83;10.48;;;;;;;13.51;72.22;101309.41;5013932;28;20502;-70
2022/11/01 07:09:07;;;;;;;17.77;10.35;;;;;;;13.22;72.61;101265.91;5021796;28;20032;-71
2022/11/01 07:11:33;;;;;;;17.05;11.38;;;;;;;13.50;72.70;101310.22;5029408;28;20093;-68
2022/11/01 07:13:58;;;;;;;18.73;11.80;;;;;;;13.59;72.52;101306.28;5027548;28;20396;-70
2022/11/01 07:16:24;;;;;;;15.48;10.77;;;;;;;13.79;72.17;101310.44;5021400;28;20017;-70
2022/11/01 07:18:50;;;;;;;15.27;10.27;;;;;;;13.75;71.55;101273.97;5021286;28;20022;-69
2022/11/01 07:21:16;;;;;;;19.65;11.20;;;;;;;14.15;70.69;101317.81;5019595;28;20026;-68
2022/11/01 07:23:42;;;;;;;20.45;10.85;;;;;;;14.21;71.35;101298.13;5021633;28;20083;-71
2022/11/01 07:26:07;;;;;;;16.08;10.75;;;;;;;14.37;70.84;101317.72;5016145;28;20508;-74
2022/11/01 07:28:32;;;;;;;19.40;11.32;;;;;;;14.28;70.36;101270.66;5011021;28;20049;-74
2022/11/01 07:30:58;;;;;;;15.93;10.48;;;;;;;14.62;69.74;101313.38;5011220;28;20092;-70
2022/11/01 07:33:23;;;;;;;18.85;12.18;;;;;;;14.70;69.60;101305.88;4976512;28;20042;-69
2022/11/01 07:35:49;;;;;;;16.88;11.55;;;;;;;14.70;69.41;101293.78;5011070;28;20026;-68
2022/11/01 07:38:14;;;;;;;19.90;11.50;;;;;;;14.86;69.49;101312.47;5011059;28;20026;-69
2022/11/01 07:40:40;;;;;;;19.17;11.77;;;;;;;14.98;69.96;101312.88;5010876;28;20040;-69
2022/11/01 07:43:06;;;;;;;22.38;11.82;;;;;;;15.10;69.70;101301.09;5010684;28;20417;-68
2022/11/01 07:45:33;;;;;;;16.30;11.27;;;;;;;15.24;68.85;101306.72;5011165;28;20066;-69
2022/11/01 07:48:01;;;;;;;18.52;11.98;;;;;;;15.28;68.67;101300.81;5011033;28;20030;-73
2022/11/01 07:50:28;;;;;;;15.52;11.07;;;;;;;15.25;68.68;101266.88;5010889;28;20076;-72
2022/11/01 07:53:01;;;;;;;18.58;11.63;;;;;;;15.55;68.68;101300.72;5010894;28;20038;-73
2022/11/01 07:55:27;;;;;;;16.83;11.98;;;;;;;15.62;68.88;101307.88;5010673;28;20026;-68
2022/11/01 07:57:52;;;;;;;19.02;12.68;;;;;;;15.74;68.27;101296.06;5011099;28;20068;-69
2022/11/01 08:00:18;;;;;;;17.30;12.85;;;;;;;15.78;68.15;101291.00;5010935;28;20034;-70
2022/11/01 08:02:43;;;;;;;24.15;12.80;;;;;;;15.91;68.48;101294.84;5011600;28;20045;-69
2022/11/01 08:05:10;;;;;;;29.48;13.38;;;;;;;16.03;67.84;101289.13;5017364;28;20032;-68
2022/11/01 08:07:39;;;;;;;14.88;10.80;;;;;;;16.14;68.13;101285.09;5017328;28;20068;-67
2022/11/01 08:10:06;;;;;;;20.15;13.07;;;;;;;16.19;70.44;101293.03;5017247;28;20025;-75
2022/11/01 08:12:31;;;;;;;20.67;11.77;;;;;;;16.28;69.87;101282.84;5017142;28;20550;-68
2022/11/01 08:14:57;;;;;;;18.35;12.18;;;;;;;16.36;68.02;101277.84;5017180;28;20029;-70
2022/11/01 08:17:22;;;;;;;22.73;13.10;;;;;;;16.49;67.00;101284.28;5017305;28;20034;-68
2022/11/01 08:19:48;;;;;;;21.92;13.50;;;;;;;16.48;66.86;101277.28;4999497;28;20022;-71
2022/11/01 08:22:13;;;;;;;25.17;12.95;;;;;;;16.55;66.87;101275.69;5017125;28;20411;-68
2022/11/01 08:24:38;;;;;;;19.73;13.02;;;;;;;16.69;66.57;101276.06;5017077;28;20018;-68
2022/11/01 08:27:04;;;;;;;17.17;12.20;;;;;;;16.88;66.15;101269.56;5017261;28;20112;-69
2022/11/01 08:29:29;;;;;;;21.10;12.07;;;;;;;16.95;66.32;101274.13;5016506;28;20025;-71
2022/11/01 08:31:55;;;;;;;18.13;11.32;;;;;;;16.93;66.14;101260.16;5017168;28;20038;-69
2022/11/01 08:34:20;;;;;;;16.80;11.52;;;;;;;16.87;66.57;101237.38;5017205;28;20061;-72
2022/11/01 08:36:45;;;;;;;17.00;11.57;;;;;;;17.15;65.79;101274.59;5017066;28;20061;-68
2022/11/01 08:39:11;;;;;;;14.80;11.65;;;;;;;17.07;66.08;101266.59;5016852;28;20186;-68
2022/11/01 08:41:36;;;;;;;18.10;10.10;;;;;;;17.18;66.14;101263.34;5017519;28;20029;-72
2022/11/01 08:44:02;;;;;;;15.55;9.98;;;;;;;17.41;64.57;101269.94;5016813;28;20108;-72
2022/11/01 08:46:27;;;;;;;16.80;10.80;;;;;;;17.60;63.84;101267.72;5017277;28;20030;-69
2022/11/01 08:48:58;;;;;;;16.70;9.98;;;;;;;17.80;62.73;101268.13;5016988;28;20477;-71
2022/11/01 08:51:25;;;;;;;14.55;9.27;;;;;;;17.95;62.24;101263.22;5016319;28;20018;-72
2022/11/01 08:53:54;;;;;;;14.70;9.45;;;;;;;18.09;62.68;101258.28;5016574;28;20034;-69
2022/11/01 08:56:20;;;;;;;15.80;9.75;;;;;;;18.27;61.16;101255.13;4966207;28;20129;-71
2022/11/01 08:58:48;;;;;;;14.35;9.20;;;;;;;18.27;60.52;101252.50;5016861;28;20038;-68
2022/11/01 09:01:13;;;;;;;19.45;9.27;;;;;;;18.37;60.36;101250.94;5016715;28;20026;-72
2022/11/01 09:03:39;;;;;;;15.45;9.43;;;;;;;18.53;59.33;101245.94;5016591;28;20068;-68
2022/11/01 09:06:04;;;;;;;17.70;9.50;;;;;;;18.59;59.22;101240.81;5016478;28;20028;-67
2022/11/01 09:08:30;;;;;;;14.23;9.07;;;;;;;18.75;59.03;101244.56;5016596;28;20029;-69
2022/11/01 09:10:59;;;;;;;14.13;9.35;;;;;;;18.79;58.18;101212.38;5016795;28;20030;-72
2022/11/01 09:13:24;;;;;;;18.00;8.80;;;;;;;19.00;57.92;101237.13;5016249;28;20037;-72
2022/11/01 09:15:50;;;;;;;14.73;8.65;;;;;;;18.95;57.59;101213.50;5023477;28;20113;-69
2022/11/01 09:18:16;;;;;;;13.85;8.55;;;;;;;19.14;57.62;101239.94;5022584;28;20112;-70
2022/11/01 09:20:41;;;;;;;12.35;8.65;;;;;;;19.24;57.60;101239.22;5016302;28;20033;-74
2022/11/01 09:23:07;;;;;;;15.00;8.68;;;;;;;19.39;57.30;101225.47;5013662;28;20129;-76
2022/11/01 09:25:32;;;;;;;12.95;8.35;;;;;;;19.56;58.01;101230.88;5012424;28;20037;-73
2022/11/01 09:27:58;;;;;;;16.67;9.15;;;;;;;19.67;57.67;101228.41;5014719;28;20668;-71
2022/11/01 09:30:24;;;;;;;15.30;8.35;;;;;;;19.68;56.27;101223.16;5012423;28;20483;-72
2022/11/01 09:32:50;;;;;;;12.93;7.72;;;;;;;19.71;56.23;101227.56;5012232;28;20056;-73
2022/11/01 09:35:16;;;;;;;13.35;7.45;;;;;;;19.85;56.96;101219.88;5012122;28;20014;-74
2022/11/01 09:37:42;;;;;;;13.98;8.38;;;;;;;19.87;58.04;101213.78;5011641;28;20022;-73
2022/11/01 09:40:11;;;;;;;11.07;7.80;;;;;;;20.06;57.55;101213.13;5012092;28;20026;-72
2022/11/01 09:42:41;;;;;;;12.77;8.50;;;;;;;20.12;56.33;101200.06;5011743;28;20107;-75
2022/11/01 09:45:17;;;;;;;12.73;8.05;;;;;;;20.31;56.23;101202.00;5011904;28;20026;-72
2022/11/01 09:47:49;;;;;;;12.52;8.35;;;;;;;20.39;55.35;101186.31;5010400;28;20538;-71
2022/11/01 09:50:25;;;;;;;11.52;7.55;;;;;;;20.45;54.37;101168.00;5011091;28;20503;-74
2022/11/01 09:52:53;;;;;;;12.07;7.15;;;;;;;20.64;54.04;101168.13;5012108;28;20105;-70
2022/11/01 09:55:50;;;;;;;14.60;7.55;;;;;;;20.92;53.34;101186.69;5011699;28;20026;-73
2022/11/01 09:58:40;;;;;;;15.30;7.57;;;;;;;21.08;54.59;101180.66;4988545;28;20038;-71
2022/11/01 10:01:37;;;;;;;14.88;7.72;;;;;;;21.21;53.01;101178.09;4988408;28;20535;-70
2022/11/01 10:04:08;;;;;;;10.55;7.20;;;;;;;21.37;52.57;101174.66;4989370;28;20038;-73
2022/11/01 10:06:48;;;;;;;14.95;7.93;;;;;;;21.45;52.55;101175.56;4989294;28;20337;-71
2022/11/01 10:09:39;;;;;;;11.48;6.93;;;;;;;21.50;53.54;101173.81;4989480;28;20073;-71
2022/11/01 10:12:38;;;;;;;10.63;6.53;;;;;;;21.56;52.92;101172.09;4989746;28;20100;-70
2022/11/01 10:15:30;;;;;;;13.70;7.00;;;;;;;21.65;53.48;101159.88;4988743;28;20046;-72
2022/11/01 10:18:03;;;;;;;12.45;7.38;;;;;;;21.71;53.49;101153.75;4989337;28;20026;-72
2022/11/01 10:20:35;;;;;;;16.13;6.45;;;;;;;21.80;53.29;101158.16;4989043;28;20030;-72
2022/11/01 10:23:03;;;;;;;10.35;6.55;;;;;;;21.91;51.27;101156.41;4989436;28;20173;-70
2022/11/01 10:25:32;;;;;;;11.60;6.40;;;;;;;21.99;50.38;101148.53;4988935;28;20035;-73
2022/11/01 10:27:57;;;;;;;10.85;6.93;;;;;;;22.10;49.50;101152.03;4988914;28;20030;-73
2022/11/01 10:30:23;;;;;;;12.05;6.40;;;;;;;22.21;49.73;101154.66;4988886;28;20062;-77
2022/11/01 10:33:00;;;;;;;11.75;6.18;;;;;;;22.20;49.04;101126.63;4989121;28;20101;-74
2022/11/01 10:35:38;;;;;;;8.75;4.97;;;;;;;22.22;47.71;101142.38;5003464;28;20045;-73
2022/11/01 10:38:19;;;;;;;13.25;6.07;;;;;;;22.28;48.61;101137.13;5010714;28;20034;-72
2022/11/01 10:40:55;;;;;;;11.30;5.97;;;;;;;22.43;47.40;101134.53;5013106;28;20451;-71
2022/11/01 10:43:23;;;;;;;7.78;5.10;;;;;;;22.45;47.34;101124.88;5030868;28;20057;-68
2022/11/01 10:45:54;;;;;;;13.52;5.70;;;;;;;22.49;47.96;101122.22;5030714;28;20017;-71
2022/11/01 10:48:42;;;;;;;18.35;10.38;;;;;;;22.57;47.56;101117.84;5030472;28;20028;-71
2022/11/01 10:51:09;;;;;;;19.33;11.07;;;;;;;22.71;47.50;101118.66;5012502;28;20454;-71
2022/11/01 10:53:52;;;;;;;12.90;5.70;;;;;;;22.60;47.38;101118.72;5030669;28;20083;-70
2022/11/01 10:56:23;;;;;;;12.13;5.80;;;;;;;22.36;47.61;101097.69;5030785;28;20017;-73
2022/11/01 10:59:04;;;;;;;10.07;5.20;;;;;;;22.49;47.89;101107.31;5030120;28;20029;-69
2022/11/01 11:01:41;;;;;;;14.15;5.70;;;;;;;22.61;47.21;101104.66;5030039;28;20471;-68
2022/11/01 11:04:11;;;;;;;9.15;5.40;;;;;;;22.60;47.08;101102.03;5029994;28;20014;-73
2022/11/01 11:06:38;;;;;;;10.90;4.95;;;;;;;22.65;46.93;101081.81;5030444;28;20025;-72
2022/11/01 11:09:05;;;;;;;9.90;5.68;;;;;;;22.63;47.39;101096.78;5030110;28;20056;-72
2022/11/01 11:11:41;;;;;;;10.55;5.20;;;;;;;22.83;46.99;101086.16;5029641;28;20072;-71
2022/11/01 11:14:08;;;;;;;10.20;5.63;;;;;;;22.75;46.54;101080.94;5027826;28;20049;-71
2022/11/01 11:16:43;;;;;;;14.15;6.07;;;;;;;22.74;47.10;101087.09;5029534;28;20042;-71
2022/11/01 11:19:18;;;;;;;8.63;5.03;;;;;;;22.84;46.50;101087.03;5024657;28;20101;-73
2022/11/01 11:21:46;;;;;;;10.23;5.53;;;;;;;22.74;47.00;101060.75;5028251;28;20034;-72
2022/11/01 11:24:22;;;;;;;10.20;5.53;;;;;;;23.00;45.96;101082.56;5030034;28;20022;-72
2022/11/01 11:26:51;;;;;;;8.52;5.03;;;;;;;23.12;45.64;101071.13;5027918;28;20069;-72
2022/11/01 11:29:25;;;;;;;14.23;5.05;;;;;;;23.20;45.65;101069.34;5029917;28;20124;-73
2022/11/01 11:31:56;;;;;;;8.70;4.72;;;;;;;23.17;45.32;101069.38;5030343;28;20032;-73
2022/11/01 11:34:31;;;;;;;10.52;4.82;;;;;;;23.16;45.19;101068.47;5026964;28;20083;-72